TimeAKDT,TemperatureF,Dew PointF,Humidity,Sea Level PressureIn,VisibilityMPH,Wind Direction,Wind SpeedMPH,Gust SpeedMPH,PrecipitationIn,Events,Conditions,WindDirDegrees,DateUTC
12:16 AM,42.8,39.2,87,30.09,10.0,Calm,Calm,-,N/A,,Overcast,0,2012-10-10 08:16:00
12:36 AM,39.2,37.4,93,30.09,10.0,Calm,Calm,-,N/A,,Overcast,0,2012-10-10 08:36:00
12:56 AM,39.2,39.2,100,30.09,10.0,Calm,Calm,-,N/A,,Overcast,0,2012-10-10 08:56:00
1:16 AM,41.0,39.2,93,30.09,10.0,Calm,Calm,-,N/A,,Overcast,0,2012-10-10 09:16:00
1:36 AM,41.0,39.2,93,30.09,10.0,Calm,Calm,-,N/A,,Overcast,0,2012-10-10 09:36:00
1:56 AM,41.0,39.2,93,30.09,10.0,Calm,Calm,-,N/A,,Overcast,0,2012-10-10 09:56:00
2:16 AM,39.2,39.2,100,30.08,10.0,Calm,Calm,-,N/A,,Overcast,0,2012-10-10 10:16:00
2:36 AM,39.2,37.4,93,30.07,10.0,Calm,Calm,-,N/A,,Overcast,0,2012-10-10 10:36:00
2:56 AM,39.2,39.2,100,30.07,10.0,Calm,Calm,-,N/A,,Overcast,0,2012-10-10 10:56:00
3:16 AM,39.2,37.4,93,30.07,10.0,Calm,Calm,-,N/A,,Overcast,0,2012-10-10 11:16:00
3:36 AM,39.2,39.2,100,30.07,10.0,Calm,Calm,-,N/A,,Overcast,0,2012-10-10 11:36:00
3:56 AM,39.2,39.2,100,30.06,10.0,Calm,Calm,-,N/A,,Overcast,0,2012-10-10 11:56:00
4:16 AM,39.2,39.2,100,30.06,10.0,Calm,Calm,-,N/A,,Overcast,0,2012-10-10 12:16:00
4:36 AM,39.2,39.2,100,30.05,10.0,Calm,Calm,-,N/A,,Overcast,0,2012-10-10 12:36:00
4:56 AM,39.2,39.2,100,30.05,10.0,Calm,Calm,-,N/A,,Overcast,0,2012-10-10 12:56:00
5:16 AM,41.0,39.2,93,30.05,10.0,Calm,Calm,-,N/A,,Overcast,0,2012-10-10 13:16:00
5:36 AM,41.0,39.2,93,30.04,10.0,Calm,Calm,-,N/A,,Overcast,0,2012-10-10 13:36:00
5:56 AM,41.0,39.2,93,30.04,10.0,Calm,Calm,-,N/A,,Overcast,0,2012-10-10 13:56:00
6:16 AM,41.0,39.2,93,30.03,10.0,Calm,Calm,-,N/A,,Overcast,0,2012-10-10 14:16:00
6:36 AM,41.0,39.2,93,30.03,10.0,Calm,Calm,-,N/A,,Overcast,0,2012-10-10 14:36:00
6:56 AM,41.0,39.2,93,30.03,10.0,Calm,Calm,-,N/A,,Overcast,0,2012-10-10 14:56:00
7:16 AM,41.0,39.2,93,30.02,10.0,Calm,Calm,-,N/A,,Overcast,0,2012-10-10 15:16:00
7:36 AM,39.2,39.2,100,30.02,10.0,Calm,Calm,-,N/A,,Overcast,0,2012-10-10 15:36:00
7:56 AM,39.2,37.4,93,30.02,10.0,Calm,Calm,-,N/A,,Overcast,0,2012-10-10 15:56:00
8:16 AM,39.2,37.4,93,30.02,10.0,Calm,Calm,-,N/A,,Mostly Cloudy,0,2012-10-10 16:16:00
8:56 AM,37.4,37.4,100,30.02,9.0,Calm,Calm,-,N/A,,Scattered Clouds,0,2012-10-10 16:56:00
9:16 AM,37.4,35.6,93,30.02,10.0,Calm,Calm,-,N/A,,Clear,0,2012-10-10 17:16:00
9:36 AM,35.6,33.8,93,30.02,10.0,Calm,Calm,-,N/A,,Clear,0,2012-10-10 17:36:00
9:56 AM,37.4,35.6,93,30.02,9.0,Calm,Calm,-,N/A,,Clear,0,2012-10-10 17:56:00
10:16 AM,37.4,35.6,93,30.02,10.0,Calm,Calm,-,N/A,,Mostly Cloudy,0,2012-10-10 18:16:00
10:36 AM,37.4,37.4,100,30.02,10.0,Calm,Calm,-,N/A,,Overcast,0,2012-10-10 18:36:00
10:56 AM,39.2,37.4,93,30.02,10.0,Calm,Calm,-,N/A,,Overcast,0,2012-10-10 18:56:00
11:16 AM,41.0,39.2,93,30.02,10.0,Calm,Calm,-,N/A,,Overcast,0,2012-10-10 19:16:00
11:36 AM,42.8,39.2,87,30.01,10.0,North,3.5,-,N/A,,Overcast,360,2012-10-10 19:36:00
11:56 AM,42.8,39.2,87,30.01,10.0,NNE,3.5,-,N/A,,Overcast,20,2012-10-10 19:56:00
12:16 PM,44.6,42.8,93,30.01,10.0,ENE,4.6,-,N/A,,Overcast,60,2012-10-10 20:16:00
12:36 PM,44.6,42.8,93,30.02,10.0,ENE,8.1,-,N/A,,Overcast,70,2012-10-10 20:36:00
12:56 PM,46.4,42.8,87,30.02,10.0,ENE,8.1,-,N/A,,Overcast,60,2012-10-10 20:56:00
1:16 PM,46.4,41.0,81,30.02,10.0,NE,6.9,-,N/A,,Overcast,40,2012-10-10 21:16:00
1:36 PM,46.4,39.2,76,30.01,10.0,NE,10.4,-,N/A,,Overcast,50,2012-10-10 21:36:00
1:56 PM,46.4,41.0,81,30.01,10.0,NE,10.4,-,N/A,,Mostly Cloudy,40,2012-10-10 21:56:00
2:16 PM,46.4,42.8,87,30.01,10.0,NE,6.9,-,N/A,,Scattered Clouds,50,2012-10-10 22:16:00
2:36 PM,48.2,41.0,76,30.00,10.0,NNE,12.7,18.4,N/A,,Mostly Cloudy,30,2012-10-10 22:36:00
2:56 PM,48.2,39.2,71,30.00,10.0,NE,12.7,18.4,N/A,,Partly Cloudy,50,2012-10-10 22:56:00
3:16 PM,50.0,39.2,66,29.99,10.0,ENE,11.5,-,N/A,,Clear,60,2012-10-10 23:16:00
3:36 PM,51.8,39.2,62,29.99,10.0,ENE,10.4,-,N/A,,Clear,60,2012-10-10 23:36:00
3:56 PM,51.8,37.4,58,29.99,10.0,NE,9.2,-,N/A,,Clear,50,2012-10-10 23:56:00
4:16 PM,51.8,37.4,58,29.98,10.0,ENE,9.2,-,N/A,,Clear,60,2012-10-11 00:16:00
4:36 PM,51.8,37.4,58,29.98,10.0,ENE,12.7,16.1,N/A,,Clear,60,2012-10-11 00:36:00
4:56 PM,50.0,35.6,58,29.98,10.0,NE,10.4,16.1,N/A,,Clear,50,2012-10-11 00:56:00
5:16 PM,50.0,35.6,58,29.97,10.0,ENE,12.7,-,N/A,,Clear,60,2012-10-11 01:16:00
5:36 PM,50.0,35.6,58,29.97,10.0,NE,8.1,-,N/A,,Clear,40,2012-10-11 01:36:00
5:56 PM,50.0,35.6,58,29.97,10.0,NE,8.1,-,N/A,,Clear,50,2012-10-11 01:56:00
6:16 PM,48.2,35.6,62,29.97,10.0,ENE,8.1,-,N/A,,Clear,70,2012-10-11 02:16:00
6:36 PM,48.2,35.6,62,29.97,10.0,ENE,5.8,-,N/A,,Clear,70,2012-10-11 02:36:00
6:56 PM,48.2,33.8,58,29.96,10.0,ENE,4.6,-,N/A,,Clear,60,2012-10-11 02:56:00
7:16 PM,46.4,35.6,66,29.96,10.0,ENE,3.5,-,N/A,,Clear,70,2012-10-11 03:16:00
7:36 PM,42.8,35.6,76,29.96,10.0,Calm,Calm,-,N/A,,Clear,0,2012-10-11 03:36:00
7:56 PM,41.0,35.6,81,29.96,10.0,Calm,Calm,-,N/A,,Clear,0,2012-10-11 03:56:00
8:16 PM,37.4,33.8,87,29.96,10.0,Calm,Calm,-,N/A,,Clear,0,2012-10-11 04:16:00
8:36 PM,37.4,33.8,87,29.96,10.0,Calm,Calm,-,N/A,,Clear,0,2012-10-11 04:36:00
8:56 PM,35.6,30.2,81,29.96,10.0,Calm,Calm,-,N/A,,Clear,0,2012-10-11 04:56:00
9:16 PM,35.6,32.0,87,29.95,-9999.0,Calm,Calm,-,N/A,,Unknown,0,2012-10-11 05:16:00
9:36 PM,33.8,30.2,87,29.95,-9999.0,Calm,Calm,-,N/A,,Unknown,0,2012-10-11 05:36:00
9:56 PM,35.6,30.2,81,29.95,-9999.0,Calm,Calm,-,N/A,,Clear,0,2012-10-11 05:56:00
10:16 PM,37.4,30.2,75,29.95,-9999.0,NE,3.5,-,N/A,,Clear,40,2012-10-11 06:16:00
10:36 PM,39.2,28.4,65,29.95,-9999.0,NE,3.5,-,N/A,,Clear,40,2012-10-11 06:36:00
10:56 PM,35.6,28.4,75,29.95,-9999.0,Calm,Calm,-,N/A,,Clear,0,2012-10-11 06:56:00
11:16 PM,35.6,28.4,75,29.94,-9999.0,Calm,Calm,-,N/A,,Clear,0,2012-10-11 07:16:00
11:36 PM,30.2,26.6,86,29.93,10.0,Calm,Calm,-,N/A,,Clear,0,2012-10-11 07:36:00
11:56 PM,30.2,26.6,86,29.93,10.0,Calm,Calm,-,N/A,,Clear,0,2012-10-11 07:56:00